Time;durP1;ratioP1;P1;durP2;ratioP2;P2;SDS_P1;SDS_P2;PMS_P1;PMS_P2;Temp;Humidity;BMP_temperature;BMP_pressure;BME280_temperature;BME280_humidity;BME280_pressure;Samples;Min_cycle;Max_cycle;Signal;HPM_P1;HPM_P2
2023/08/30 00:00:42;;;;;;;0.00;0.00;;;;;;;;;;5093196;28;20380;-82
2023/08/30 00:03:08;;;;;;;0.00;0.00;;;;;;;;;;5092153;28;20040;-82
2023/08/30 00:05:34;;;;;;;0.00;0.00;;;;;;;;;;5093300;28;20040;-82
2023/08/30 00:08:00;;;;;;;0.00;0.00;;;;;;;;;;5093249;28;20085;-82
2023/08/30 00:10:26;;;;;;;0.00;0.00;;;;;;;;;;5091687;28;20115;-82
2023/08/30 00:12:52;;;;;;;0.00;0.00;;;;;;;;;;5091825;28;20083;-82
2023/08/30 00:15:18;;;;;;;0.00;0.00;;;;;;;;;;5092724;28;20407;-82
2023/08/30 00:17:45;;;;;;;0.00;0.00;;;;;;;;;;5091809;28;20039;-82
2023/08/30 00:20:11;;;;;;;0.00;0.00;;;;;;;;;;5092852;28;20487;-82
2023/08/30 00:22:37;;;;;;;0.00;0.00;;;;;;;;;;5093304;28;20050;-82
2023/08/30 00:25:04;;;;;;;0.00;0.00;;;;;;;;;;5092935;28;20058;-82
2023/08/30 00:27:30;;;;;;;0.00;0.00;;;;;;;;;;5091799;28;20082;-82
2023/08/30 00:29:55;;;;;;;0.00;0.00;;;;;;;;;;5091397;28;20044;-82
2023/08/30 00:32:22;;;;;;;0.00;0.00;;;;;;;;;;5090838;28;20032;-82
2023/08/30 00:34:51;;;;;;;0.00;0.00;;;;;;;;;;5092940;28;20489;-82
2023/08/30 00:37:17;;;;;;;0.00;0.00;;;;;;;;;;5092809;28;20553;-82
2023/08/30 00:39:43;;;;;;;0.20;0.00;;;;;;;;;;5091431;28;20090;-82
2023/08/30 00:42:09;;;;;;;0.00;0.00;;;;;;;;;;5092694;28;20040;-82
2023/08/30 00:44:35;;;;;;;0.00;0.00;;;;;;;;;;5091520;28;20535;-82
2023/08/30 00:47:02;;;;;;;0.00;0.00;;;;;;;;;;5091268;28;20048;-82
2023/08/30 00:49:31;;;;;;;0.00;0.00;;;;;;;;;;5092911;28;20031;-82
2023/08/30 00:51:58;;;;;;;0.00;0.00;;;;;;;;;;5091106;28;20074;-82
2023/08/30 00:54:24;;;;;;;0.00;0.00;;;;;;;;;;5091665;28;20092;-82
2023/08/30 00:56:51;;;;;;;0.00;0.00;;;;;;;;;;5092578;28;20059;-83
2023/08/30 00:59:17;;;;;;;0.00;0.00;;;;;;;;;;5091115;28;20100;-82
2023/08/30 01:01:43;;;;;;;0.00;0.00;;;;;;;;;;5092504;28;20042;-82
2023/08/30 01:04:09;;;;;;;0.00;0.00;;;;;;;;;;5091259;28;20494;-82
2023/08/30 01:06:37;;;;;;;0.00;0.00;;;;;;;;;;5092262;28;20040;-83
2023/08/30 01:09:03;;;;;;;0.00;0.00;;;;;;;;;;5092438;28;20498;-83
2023/08/30 01:11:41;;;;;;;0.00;0.00;;;;;;;;;;5091080;28;20042;-82
2023/08/30 01:14:08;;;;;;;0.00;0.00;;;;;;;;;;5092175;28;20032;-82
2023/08/30 01:16:36;;;;;;;0.00;0.00;;;;;;;;;;5092475;28;20044;-82
2023/08/30 01:19:15;;;;;;;0.00;0.00;;;;;;;;;;5090994;28;20079;-82
2023/08/30 01:21:53;;;;;;;0.00;0.00;;;;;;;;;;5073962;28;20055;-82
2023/08/30 01:24:41;;;;;;;0.00;0.00;;;;;;;;;;5092188;28;20482;-82
2023/08/30 01:27:11;;;;;;;0.00;0.00;;;;;;;;;;5092117;28;20040;-82
2023/08/30 01:29:38;;;;;;;0.00;0.00;;;;;;;;;;5090885;28;20040;-82
2023/08/30 01:32:04;;;;;;;0.00;0.00;;;;;;;;;;5090737;28;20117;-82
2023/08/30 01:34:31;;;;;;;0.00;0.00;;;;;;;;;;5092335;28;20126;-82
2023/08/30 01:36:58;;;;;;;0.10;0.00;;;;;;;;;;5091878;28;20036;-82
2023/08/30 01:39:24;;;;;;;0.00;0.00;;;;;;;;;;5092301;28;20055;-82
2023/08/30 01:41:52;;;;;;;0.00;0.00;;;;;;;;;;5092084;28;20036;-83
2023/08/30 01:44:19;;;;;;;0.00;0.00;;;;;;;;;;5095024;28;20044;-82
2023/08/30 01:46:46;;;;;;;0.00;0.00;;;;;;;;;;5094568;28;20443;-82
2023/08/30 01:49:13;;;;;;;0.00;0.00;;;;;;;;;;5094359;28;20040;-82
2023/08/30 01:51:39;;;;;;;0.00;0.00;;;;;;;;;;5095707;28;20368;-82
2023/08/30 01:54:06;;;;;;;0.00;0.00;;;;;;;;;;5095932;28;20036;-83
2023/08/30 01:56:32;;;;;;;0.00;0.00;;;;;;;;;;5095942;28;20397;-82
2023/08/30 01:58:58;;;;;;;0.00;0.00;;;;;;;;;;5094497;28;20100;-82
2023/08/30 02:01:24;;;;;;;0.00;0.00;;;;;;;;;;5095582;28;20119;-82
2023/08/30 02:03:50;;;;;;;0.00;0.00;;;;;;;;;;5095581;28;20109;-86
2023/08/30 02:06:22;;;;;;;0.00;0.00;;;;;;;;;;5094126;28;20079;-82
2023/08/30 02:08:55;;;;;;;0.00;0.00;;;;;;;;;;5094271;28;20682;-82
2023/08/30 02:11:27;;;;;;;0.00;0.00;;;;;;;;;;5094277;28;20067;-82
2023/08/30 02:13:55;;;;;;;0.00;0.00;;;;;;;;;;5095379;28;20036;-82
2023/08/30 02:16:21;;;;;;;0.00;0.00;;;;;;;;;;5095393;28;20036;-82
2023/08/30 02:18:48;;;;;;;0.00;0.00;;;;;;;;;;5094213;28;20119;-82
2023/08/30 02:21:14;;;;;;;0.00;0.00;;;;;;;;;;5095237;28;20432;-82
2023/08/30 02:23:39;;;;;;;0.00;0.00;;;;;;;;;;5095690;28;20082;-82
2023/08/30 02:26:05;;;;;;;0.00;0.00;;;;;;;;;;5095491;28;20471;-82
2023/08/30 02:28:31;;;;;;;0.00;0.00;;;;;;;;;;5094487;28;20141;-82
2023/08/30 02:30:58;;;;;;;0.00;0.00;;;;;;;;;;5095260;28;20515;-83
2023/08/30 02:33:23;;;;;;;0.00;0.00;;;;;;;;;;5095475;28;20161;-82
2023/08/30 02:35:49;;;;;;;0.00;0.00;;;;;;;;;;5094372;28;20075;-82
2023/08/30 02:38:15;;;;;;;0.00;0.00;;;;;;;;;;5094786;28;20040;-82
2023/08/30 02:40:41;;;;;;;0.00;0.00;;;;;;;;;;5093632;28;20055;-82
2023/08/30 02:43:07;;;;;;;0.00;0.00;;;;;;;;;;5093460;28;20079;-82
2023/08/30 02:45:34;;;;;;;0.00;0.00;;;;;;;;;;5094899;28;20067;-82
2023/08/30 02:48:00;;;;;;;0.00;0.00;;;;;;;;;;5093245;28;20097;-82
2023/08/30 02:50:26;;;;;;;0.00;0.00;;;;;;;;;;5093378;28;20044;-82
2023/08/30 02:52:52;;;;;;;0.00;0.00;;;;;;;;;;5093510;28;20127;-82
2023/08/30 02:55:18;;;;;;;0.00;0.00;;;;;;;;;;5093842;28;20043;-82
2023/08/30 02:57:46;;;;;;;0.32;0.25;;;;;;;;;;5093079;28;20039;-82
2023/08/30 03:00:12;;;;;;;0.00;0.00;;;;;;;;;;5094430;28;20110;-82
2023/08/30 03:02:38;;;;;;;0.00;0.00;;;;;;;;;;5094490;28;20122;-82
2023/08/30 03:05:04;;;;;;;0.00;0.00;;;;;;;;;;5093440;28;20090;-82
2023/08/30 03:07:30;;;;;;;0.00;0.00;;;;;;;;;;5093107;28;20040;-82
2023/08/30 03:09:56;;;;;;;0.00;0.00;;;;;;;;;;5093072;28;20141;-82
2023/08/30 03:12:22;;;;;;;0.00;0.00;;;;;;;;;;5094324;28;20146;-82
2023/08/30 03:14:48;;;;;;;0.00;0.00;;;;;;;;;;5094145;28;20056;-82
2023/08/30 03:17:14;;;;;;;0.00;0.00;;;;;;;;;;5094271;28;20367;-83
2023/08/30 03:19:40;;;;;;;0.00;0.00;;;;;;;;;;5093088;28;20040;-82
2023/08/30 03:22:06;;;;;;;0.15;0.08;;;;;;;;;;5094040;28;20377;-82
2023/08/30 03:24:32;;;;;;;0.00;0.00;;;;;;;;;;5094329;28;20032;-82
2023/08/30 03:26:59;;;;;;;0.00;0.00;;;;;;;;;;5094272;28;20040;-82
2023/08/30 03:29:25;;;;;;;0.00;0.00;;;;;;;;;;5092610;28;20063;-83
2023/08/30 03:31:51;;;;;;;0.00;0.00;;;;;;;;;;5094016;28;20440;-82
2023/08/30 03:34:17;;;;;;;0.00;0.00;;;;;;;;;;5094186;28;20040;-82
2023/08/30 03:36:44;;;;;;;0.00;0.00;;;;;;;;;;5093620;28;20136;-82
2023/08/30 03:39:12;;;;;;;0.00;0.00;;;;;;;;;;5093818;28;20214;-82
2023/08/30 03:41:38;;;;;;;0.00;0.00;;;;;;;;;;5093657;28;20040;-82
2023/08/30 03:44:04;;;;;;;0.00;0.00;;;;;;;;;;5092497;28;20044;-82
2023/08/30 03:46:30;;;;;;;0.00;0.00;;;;;;;;;;5092529;28;20047;-82
2023/08/30 03:48:56;;;;;;;0.00;0.00;;;;;;;;;;5092076;28;20048;-82
2023/08/30 03:51:22;;;;;;;0.00;0.00;;;;;;;;;;5092323;28;20043;-82
2023/08/30 03:53:48;;;;;;;0.00;0.00;;;;;;;;;;5092206;28;20118;-82
2023/08/30 03:56:14;;;;;;;0.00;0.00;;;;;;;;;;5092406;28;20117;-82
2023/08/30 03:58:40;;;;;;;0.10;0.00;;;;;;;;;;5093336;28;20044;-82
2023/08/30 04:01:06;;;;;;;0.00;0.00;;;;;;;;;;5093570;28;20039;-82
2023/08/30 04:03:32;;;;;;;0.00;0.00;;;;;;;;;;5093353;28;20159;-82
2023/08/30 04:05:58;;;;;;;0.00;0.00;;;;;;;;;;5092305;28;20136;-82
2023/08/30 04:08:24;;;;;;;0.00;0.00;;;;;;;;;;5091769;28;20048;-82
2023/08/30 04:10:52;;;;;;;0.00;0.00;;;;;;;;;;5093690;28;20467;-82
2023/08/30 04:13:18;;;;;;;0.00;0.00;;;;;;;;;;5092925;28;20044;-82
2023/08/30 04:15:44;;;;;;;0.00;0.00;;;;;;;;;;5093586;28;20110;-82
2023/08/30 04:18:10;;;;;;;0.00;0.00;;;;;;;;;;5093245;28;20040;-82
2023/08/30 04:20:36;;;;;;;0.00;0.00;;;;;;;;;;5091627;28;20122;-82
2023/08/30 04:23:02;;;;;;;0.00;0.00;;;;;;;;;;5092964;28;20070;-81
2023/08/30 04:25:29;;;;;;;0.00;0.00;;;;;;;;;;5091695;28;20043;-82
2023/08/30 04:27:55;;;;;;;0.00;0.00;;;;;;;;;;5092767;28;20062;-82
2023/08/30 04:30:21;;;;;;;0.10;0.10;;;;;;;;;;5091624;28;20530;-82
2023/08/30 04:32:47;;;;;;;0.00;0.00;;;;;;;;;;5091599;28;20048;-82
2023/08/30 04:35:13;;;;;;;0.00;0.00;;;;;;;;;;5091905;28;20070;-82
2023/08/30 04:37:39;;;;;;;0.00;0.00;;;;;;;;;;5093124;28;20089;-81
2023/08/30 04:40:09;;;;;;;0.00;0.00;;;;;;;;;;5093043;28;20071;-82
2023/08/30 04:42:35;;;;;;;0.00;0.00;;;;;;;;;;5092731;28;20048;-82
2023/08/30 04:45:02;;;;;;;0.00;0.00;;;;;;;;;;5092859;28;20066;-82
2023/08/30 04:47:30;;;;;;;0.00;0.00;;;;;;;;;;5074365;28;20050;-82
2023/08/30 04:49:56;;;;;;;0.00;0.00;;;;;;;;;;5091830;28;20059;-82
2023/08/30 04:52:22;;;;;;;0.00;0.00;;;;;;;;;;5092754;28;20044;-82
2023/08/30 04:54:48;;;;;;;0.00;0.00;;;;;;;;;;5091643;28;20096;-82
2023/08/30 04:57:16;;;;;;;0.00;0.00;;;;;;;;;;5091690;28;20359;-82
2023/08/30 04:59:42;;;;;;;0.00;0.00;;;;;;;;;;5090976;28;20051;-82
2023/08/30 05:02:08;;;;;;;0.00;0.00;;;;;;;;;;5075422;28;20496;-82
2023/08/30 05:04:34;;;;;;;0.00;0.00;;;;;;;;;;5091530;28;20105;-82
2023/08/30 05:07:00;;;;;;;0.00;0.00;;;;;;;;;;5091653;28;20036;-81
2023/08/30 05:09:26;;;;;;;0.00;0.00;;;;;;;;;;5091077;28;20450;-81
2023/08/30 05:11:53;;;;;;;0.00;0.00;;;;;;;;;;5091468;28;20043;-82
2023/08/30 05:14:19;;;;;;;0.00;0.00;;;;;;;;;;5092371;28;20040;-82
2023/08/30 05:16:45;;;;;;;0.00;0.00;;;;;;;;;;5092539;28;20044;-82
2023/08/30 05:19:11;;;;;;;0.25;0.25;;;;;;;;;;5093971;28;20119;-83
2023/08/30 05:21:37;;;;;;;0.00;0.00;;;;;;;;;;5096673;28;20184;-82
2023/08/30 05:24:05;;;;;;;0.00;0.00;;;;;;;;;;5094781;28;20044;-82
2023/08/30 05:26:31;;;;;;;0.10;0.00;;;;;;;;;;5078089;28;20391;-82
2023/08/30 05:28:57;;;;;;;0.00;0.00;;;;;;;;;;5096021;28;20207;-82
2023/08/30 05:31:23;;;;;;;0.00;0.00;;;;;;;;;;5096442;28;20222;-82
2023/08/30 05:33:49;;;;;;;0.13;0.10;;;;;;;;;;5094884;28;20054;-82
2023/08/30 05:36:15;;;;;;;0.00;0.00;;;;;;;;;;5095124;28;20032;-82
2023/08/30 05:38:41;;;;;;;0.00;0.00;;;;;;;;;;5095909;28;20116;-82
2023/08/30 05:41:08;;;;;;;0.00;0.00;;;;;;;;;;5096093;28;20498;-82
2023/08/30 05:43:33;;;;;;;0.00;0.00;;;;;;;;;;5095946;28;20040;-83
2023/08/30 05:46:02;;;;;;;0.00;0.00;;;;;;;;;;5077832;28;20055;-82
2023/08/30 05:48:28;;;;;;;0.08;0.08;;;;;;;;;;5094523;28;20044;-82
2023/08/30 05:50:54;;;;;;;0.00;0.00;;;;;;;;;;5095993;28;20065;-82
2023/08/30 05:53:20;;;;;;;0.00;0.00;;;;;;;;;;5095884;28;20040;-82
2023/08/30 05:55:46;;;;;;;0.00;0.00;;;;;;;;;;5096173;28;20119;-82
2023/08/30 05:58:15;;;;;;;0.00;0.00;;;;;;;;;;5094694;28;20499;-82
2023/08/30 06:00:40;;;;;;;0.00;0.00;;;;;;;;;;5095874;28;20044;-83
2023/08/30 06:03:06;;;;;;;0.00;0.00;;;;;;;;;;5095694;28;20051;-82
2023/08/30 06:05:33;;;;;;;0.00;0.00;;;;;;;;;;5095888;28;20090;-83
2023/08/30 06:07:59;;;;;;;0.00;0.00;;;;;;;;;;5095566;28;20040;-83
2023/08/30 06:10:25;;;;;;;0.00;0.00;;;;;;;;;;5094071;28;20032;-82
2023/08/30 06:12:51;;;;;;;0.00;0.00;;;;;;;;;;5095682;28;20040;-82
2023/08/30 06:15:17;;;;;;;0.00;0.00;;;;;;;;;;5095194;28;20047;-82
2023/08/30 06:17:43;;;;;;;0.00;0.00;;;;;;;;;;5094365;28;20055;-85
2023/08/30 06:20:09;;;;;;;0.00;0.00;;;;;;;;;;5095227;28;20099;-82
2023/08/30 06:22:35;;;;;;;0.10;0.10;;;;;;;;;;5094474;28;20379;-83
2023/08/30 06:25:04;;;;;;;0.00;0.00;;;;;;;;;;5093932;28;20428;-83
2023/08/30 06:27:30;;;;;;;0.00;0.00;;;;;;;;;;5095487;28;20048;-85
2023/08/30 06:29:56;;;;;;;0.00;0.00;;;;;;;;;;5093659;28;20040;-84
2023/08/30 06:32:22;;;;;;;0.00;0.00;;;;;;;;;;5095322;28;20119;-86
2023/08/30 06:34:48;;;;;;;0.00;0.00;;;;;;;;;;5093891;28;20036;-87
2023/08/30 06:37:14;;;;;;;0.00;0.00;;;;;;;;;;5095109;28;20375;-86
2023/08/30 06:39:39;;;;;;;0.00;0.00;;;;;;;;;;5076946;28;20040;-85
2023/08/30 06:42:06;;;;;;;0.00;0.00;;;;;;;;;;5093935;28;20035;-86
2023/08/30 06:44:32;;;;;;;0.00;0.00;;;;;;;;;;5093794;28;20071;-85
2023/08/30 06:46:58;;;;;;;0.00;0.00;;;;;;;;;;5094118;28;20094;-90
2023/08/30 06:49:24;;;;;;;0.00;0.00;;;;;;;;;;5076971;28;20169;-89
2023/08/30 06:51:50;;;;;;;0.00;0.00;;;;;;;;;;5094089;28;20506;-92
2023/08/30 06:54:16;;;;;;;0.00;0.00;;;;;;;;;;5093712;28;20051;-80
2023/08/30 06:56:46;;;;;;;0.00;0.00;;;;;;;;;;5094925;28;20047;-80
2023/08/30 06:59:12;;;;;;;0.00;0.00;;;;;;;;;;5094667;28;20413;-90
2023/08/30 07:01:38;;;;;;;0.00;0.00;;;;;;;;;;5096127;28;20093;-89
2023/08/30 07:04:04;;;;;;;0.00;0.00;;;;;;;;;;5077207;28;20371;-87
2023/08/30 07:06:30;;;;;;;0.00;0.00;;;;;;;;;;5093870;28;20543;-88
2023/08/30 07:08:56;;;;;;;0.00;0.00;;;;;;;;;;5094095;28;20047;-88
2023/08/30 07:11:22;;;;;;;0.00;0.00;;;;;;;;;;5093812;28;20514;-89
2023/08/30 07:13:48;;;;;;;0.00;0.00;;;;;;;;;;5094036;28;20063;-88
2023/08/30 07:16:15;;;;;;;0.00;0.00;;;;;;;;;;5094497;28;20133;-88
2023/08/30 07:18:41;;;;;;;0.00;0.00;;;;;;;;;;5096631;28;20446;-89
2023/08/30 07:21:07;;;;;;;0.00;0.00;;;;;;;;;;5095829;28;20097;-88
2023/08/30 07:23:32;;;;;;;0.00;0.00;;;;;;;;;;5095996;28;20407;-87
2023/08/30 07:25:58;;;;;;;0.00;0.00;;;;;;;;;;5094296;28;20055;-87
2023/08/30 07:28:24;;;;;;;0.00;0.00;;;;;;;;;;5077270;28;20040;-88
2023/08/30 07:30:50;;;;;;;0.00;0.00;;;;;;;;;;5094061;28;20032;-89
2023/08/30 07:33:16;;;;;;;0.00;0.00;;;;;;;;;;5094229;28;20126;-87
2023/08/30 07:35:42;;;;;;;0.00;0.00;;;;;;;;;;5094257;28;20043;-88
2023/08/30 07:38:29;;;;;;;0.00;0.00;;;;;;;;;;5096245;28;20364;-94
2023/08/30 07:40:55;;;;;;;0.00;0.00;;;;;;;;;;5094436;28;20127;-84
2023/08/30 07:43:21;;;;;;;0.10;0.00;;;;;;;;;;5095788;28;20082;-87
2023/08/30 07:45:47;;;;;;;0.00;0.00;;;;;;;;;;5093768;28;20117;-87
2023/08/30 07:48:13;;;;;;;0.00;0.00;;;;;;;;;;5095189;28;20040;-87
2023/08/30 07:50:39;;;;;;;0.00;0.00;;;;;;;;;;5093314;28;20038;-86
2023/08/30 07:53:05;;;;;;;0.00;0.00;;;;;;;;;;5095656;28;20111;-87
2023/08/30 07:55:31;;;;;;;0.00;0.00;;;;;;;;;;5092974;28;20036;-87
2023/08/30 07:57:57;;;;;;;0.00;0.00;;;;;;;;;;5094804;28;20068;-87
2023/08/30 08:00:23;;;;;;;0.00;0.00;;;;;;;;;;5076872;28;20051;-89
2023/08/30 08:02:49;;;;;;;0.00;0.00;;;;;;;;;;5076730;28;20392;-88
2023/08/30 08:05:14;;;;;;;0.00;0.00;;;;;;;;;;5094170;28;20047;-87
2023/08/30 08:07:42;;;;;;;0.00;0.00;;;;;;;;;;5103492;28;20036;-87
2023/08/30 08:10:09;;;;;;;0.00;0.00;;;;;;;;;;5098182;28;20096;-87
2023/08/30 08:12:35;;;;;;;0.00;0.00;;;;;;;;;;5098090;28;20043;-87
2023/08/30 08:15:02;;;;;;;0.00;0.00;;;;;;;;;;5095663;28;20052;-89
2023/08/30 08:17:28;;;;;;;0.00;0.00;;;;;;;;;;5099322;28;20068;-90
2023/08/30 08:19:55;;;;;;;0.00;0.00;;;;;;;;;;5096807;28;20411;-86
2023/08/30 08:22:22;;;;;;;0.00;0.00;;;;;;;;;;5095484;28;20179;-86
2023/08/30 08:24:51;;;;;;;0.00;0.00;;;;;;;;;;5096244;28;20048;-88
2023/08/30 08:27:17;;;;;;;0.00;0.00;;;;;;;;;;5100009;28;20092;-86
2023/08/30 08:29:43;;;;;;;0.00;0.00;;;;;;;;;;5098000;28;20137;-88
2023/08/30 08:32:09;;;;;;;0.00;0.00;;;;;;;;;;5077983;28;20036;-85
2023/08/30 08:34:35;;;;;;;0.00;0.00;;;;;;;;;;5094491;28;20043;-86
2023/08/30 08:37:01;;;;;;;0.00;0.00;;;;;;;;;;5095173;28;20040;-86
2023/08/30 08:39:27;;;;;;;0.00;0.00;;;;;;;;;;5095052;28;20047;-87
2023/08/30 08:41:54;;;;;;;0.00;0.00;;;;;;;;;;5080375;28;20082;-86
2023/08/30 08:44:21;;;;;;;0.00;0.00;;;;;;;;;;5094442;28;20548;-85
2023/08/30 08:46:48;;;;;;;0.00;0.00;;;;;;;;;;5093597;28;20071;-87
2023/08/30 08:49:14;;;;;;;0.00;0.00;;;;;;;;;;5093787;28;20044;-86
2023/08/30 08:51:42;;;;;;;0.00;0.00;;;;;;;;;;5077343;28;20176;-86
2023/08/30 08:54:09;;;;;;;0.00;0.00;;;;;;;;;;5076231;28;20475;-85
2023/08/30 08:56:35;;;;;;;0.00;0.00;;;;;;;;;;5093060;28;20036;-85
2023/08/30 08:59:01;;;;;;;0.00;0.00;;;;;;;;;;5094372;28;20040;-86
2023/08/30 09:01:28;;;;;;;0.00;0.00;;;;;;;;;;5093541;28;20351;-85
2023/08/30 09:03:54;;;;;;;0.00;0.00;;;;;;;;;;5094267;28;20048;-86
2023/08/30 09:06:21;;;;;;;0.00;0.00;;;;;;;;;;5093655;28;20043;-86
2023/08/30 09:08:47;;;;;;;0.00;0.00;;;;;;;;;;5092216;28;20044;-85
2023/08/30 09:11:13;;;;;;;0.00;0.00;;;;;;;;;;5094600;28;20394;-86
2023/08/30 09:13:39;;;;;;;0.00;0.00;;;;;;;;;;5091804;28;20047;-86
2023/08/30 09:16:15;;;;;;;0.00;0.00;;;;;;;;;;5091164;28;20462;-85
2023/08/30 09:18:41;;;;;;;0.00;0.00;;;;;;;;;;5074598;28;20048;-86
2023/08/30 09:21:08;;;;;;;0.00;0.00;;;;;;;;;;5091417;28;20452;-86
2023/08/30 09:23:34;;;;;;;0.00;0.00;;;;;;;;;;5091643;28;20047;-86
2023/08/30 09:26:02;;;;;;;0.00;0.00;;;;;;;;;;5092745;28;20043;-86
2023/08/30 09:28:28;;;;;;;0.00;0.00;;;;;;;;;;5074499;28;20063;-84
2023/08/30 09:30:54;;;;;;;0.00;0.00;;;;;;;;;;5091074;28;20082;-85
2023/08/30 09:33:24;;;;;;;0.20;0.00;;;;;;;;;;5091239;28;20036;-85
2023/08/30 09:35:50;;;;;;;0.00;0.00;;;;;;;;;;5092420;28;20044;-84
2023/08/30 09:38:19;;;;;;;0.00;0.00;;;;;;;;;;5074477;28;20040;-85
2023/08/30 09:40:46;;;;;;;0.00;0.00;;;;;;;;;;5074179;28;20187;-85
2023/08/30 09:43:14;;;;;;;0.00;0.00;;;;;;;;;;5091251;28;20044;-86
2023/08/30 09:45:41;;;;;;;0.00;0.00;;;;;;;;;;5090998;28;20123;-85
2023/08/30 09:48:08;;;;;;;0.00;0.00;;;;;;;;;;5091048;28;20589;-88
2023/08/30 09:50:35;;;;;;;0.00;0.00;;;;;;;;;;5090786;28;20476;-85
2023/08/30 09:53:09;;;;;;;0.00;0.00;;;;;;;;;;5091421;28;20432;-86
2023/08/30 09:55:35;;;;;;;0.00;0.00;;;;;;;;;;5092429;28;20044;-85
2023/08/30 09:58:07;;;;;;;0.00;0.00;;;;;;;;;;5092563;28;20028;-85
2023/08/30 10:00:34;;;;;;;0.00;0.00;;;;;;;;;;5092400;28;20036;-85
2023/08/30 10:03:01;;;;;;;0.00;0.00;;;;;;;;;;5074433;28;20093;-85
2023/08/30 10:05:27;;;;;;;0.00;0.00;;;;;;;;;;5077114;28;20040;-84
2023/08/30 10:07:53;;;;;;;0.00;0.00;;;;;;;;;;5094840;28;20387;-85
2023/08/30 10:10:24;;;;;;;0.00;0.00;;;;;;;;;;5094687;28;20083;-85
2023/08/30 10:12:50;;;;;;;0.00;0.00;;;;;;;;;;5094414;28;20043;-86
2023/08/30 10:15:16;;;;;;;0.00;0.00;;;;;;;;;;5094374;28;20522;-86
2023/08/30 10:17:45;;;;;;;0.00;0.00;;;;;;;;;;5094079;28;20044;-85
2023/08/30 10:20:14;;;;;;;0.00;0.00;;;;;;;;;;5077484;28;20036;-86
2023/08/30 10:22:41;;;;;;;0.00;0.00;;;;;;;;;;5095781;28;20071;-84
2023/08/30 10:25:08;;;;;;;0.00;0.00;;;;;;;;;;5094590;28;20094;-85
2023/08/30 10:27:35;;;;;;;0.00;0.00;;;;;;;;;;5095671;28;20043;-84
2023/08/30 10:30:03;;;;;;;0.00;0.00;;;;;;;;;;5094121;28;20040;-85
2023/08/30 10:32:31;;;;;;;0.00;0.00;;;;;;;;;;5093912;28;20036;-85
2023/08/30 10:35:03;;;;;;;0.10;0.10;;;;;;;;;;5094983;28;20044;-85
2023/08/30 10:37:29;;;;;;;0.00;0.00;;;;;;;;;;5094168;28;20040;-85
2023/08/30 10:40:00;;;;;;;0.00;0.00;;;;;;;;;;5094080;28;20036;-85
2023/08/30 10:42:26;;;;;;;0.00;0.00;;;;;;;;;;5076981;28;20081;-85
2023/08/30 10:45:08;;;;;;;0.00;0.00;;;;;;;;;;5095195;28;20043;-84
2023/08/30 10:47:37;;;;;;;0.00;0.00;;;;;;;;;;5094906;28;20036;-85
2023/08/30 10:50:10;;;;;;;0.00;0.00;;;;;;;;;;5095273;28;20040;-84
2023/08/30 10:52:36;;;;;;;0.00;0.00;;;;;;;;;;5076872;28;20479;-84
2023/08/30 10:55:10;;;;;;;0.00;0.00;;;;;;;;;;5093563;28;20044;-84
2023/08/30 10:57:36;;;;;;;0.00;0.00;;;;;;;;;;5094865;28;20199;-84
2023/08/30 11:00:07;;;;;;;0.00;0.00;;;;;;;;;;5093652;28;20032;-85
2023/08/30 11:02:33;;;;;;;0.00;0.00;;;;;;;;;;5093242;28;20043;-85
2023/08/30 11:04:59;;;;;;;0.00;0.00;;;;;;;;;;5093707;28;20052;-84
2023/08/30 11:07:26;;;;;;;0.00;0.00;;;;;;;;;;5094551;28;20032;-85
2023/08/30 11:09:52;;;;;;;0.00;0.00;;;;;;;;;;5094593;28;20092;-85
2023/08/30 11:12:18;;;;;;;0.00;0.00;;;;;;;;;;5093095;28;20067;-85
2023/08/30 11:14:44;;;;;;;0.00;0.00;;;;;;;;;;5093197;28;20135;-85
2023/08/30 11:17:10;;;;;;;0.00;0.00;;;;;;;;;;5093697;28;20488;-85
2023/08/30 11:19:36;;;;;;;0.00;0.00;;;;;;;;;;5093025;28;20067;-85
2023/08/30 11:22:02;;;;;;;0.00;0.00;;;;;;;;;;5093402;28;20083;-84
2023/08/30 11:24:28;;;;;;;0.00;0.00;;;;;;;;;;5093053;28;20040;-85
2023/08/30 11:26:55;;;;;;;0.00;0.00;;;;;;;;;;5092885;28;20044;-85
2023/08/30 11:29:21;;;;;;;0.00;0.00;;;;;;;;;;5092924;28;20048;-84
2023/08/30 11:31:47;;;;;;;0.00;0.00;;;;;;;;;;5092941;28;20119;-85
2023/08/30 11:34:13;;;;;;;0.00;0.00;;;;;;;;;;5093601;28;20036;-86
2023/08/30 11:36:39;;;;;;;0.00;0.00;;;;;;;;;;5093034;28;20032;-86
2023/08/30 11:39:07;;;;;;;0.00;0.00;;;;;;;;;;5094177;28;20041;-85
2023/08/30 11:41:33;;;;;;;0.00;0.00;;;;;;;;;;5093205;28;20040;-86
2023/08/30 11:44:00;;;;;;;0.00;0.00;;;;;;;;;;5092835;28;20423;-86
2023/08/30 11:46:26;;;;;;;0.00;0.00;;;;;;;;;;5093303;28;20044;-86
2023/08/30 11:48:52;;;;;;;0.00;0.00;;;;;;;;;;5093844;28;20040;-86
2023/08/30 11:51:19;;;;;;;0.00;0.00;;;;;;;;;;5092445;28;20071;-86
2023/08/30 11:53:45;;;;;;;0.00;0.00;;;;;;;;;;5092202;28;20128;-86
2023/08/30 11:56:11;;;;;;;0.00;0.00;;;;;;;;;;5092563;28;20123;-85
2023/08/30 11:58:38;;;;;;;0.00;0.00;;;;;;;;;;5092809;28;20447;-85
2023/08/30 12:01:04;;;;;;;0.00;0.00;;;;;;;;;;5094182;28;20047;-85
2023/08/30 12:03:31;;;;;;;0.00;0.00;;;;;;;;;;5094082;28;20069;-84
2023/08/30 12:05:57;;;;;;;0.00;0.00;;;;;;;;;;5092587;28;20048;-86
2023/08/30 12:08:28;;;;;;;0.00;0.00;;;;;;;;;;5092331;28;20040;-86
2023/08/30 12:10:54;;;;;;;0.00;0.00;;;;;;;;;;5092637;28;20475;-86
2023/08/30 12:13:27;;;;;;;0.00;0.00;;;;;;;;;;5093823;28;20048;-86
2023/08/30 12:15:54;;;;;;;0.00;0.00;;;;;;;;;;5092296;28;20109;-86
2023/08/30 12:18:24;;;;;;;0.00;0.00;;;;;;;;;;5092238;28;20044;-86
2023/08/30 12:20:53;;;;;;;0.00;0.00;;;;;;;;;;5092114;28;20048;-85
2023/08/30 12:23:20;;;;;;;0.00;0.00;;;;;;;;;;5092506;28;20036;-86
2023/08/30 12:25:56;;;;;;;0.00;0.00;;;;;;;;;;5092278;28;20044;-86
2023/08/30 12:28:22;;;;;;;0.00;0.00;;;;;;;;;;5092095;28;20044;-86
2023/08/30 12:30:48;;;;;;;0.00;0.00;;;;;;;;;;5092671;28;20078;-86
2023/08/30 12:33:17;;;;;;;0.00;0.00;;;;;;;;;;5091942;28;20039;-87
2023/08/30 12:35:43;;;;;;;0.00;0.00;;;;;;;;;;5093512;28;20502;-86
2023/08/30 12:38:11;;;;;;;0.00;0.00;;;;;;;;;;5091989;28;20043;-86
2023/08/30 12:40:37;;;;;;;0.00;0.00;;;;;;;;;;5091795;28;20086;-86
2023/08/30 12:43:03;;;;;;;0.00;0.00;;;;;;;;;;5091790;28;20460;-86
2023/08/30 12:45:29;;;;;;;0.00;0.00;;;;;;;;;;5075168;28;20066;-87
2023/08/30 12:47:58;;;;;;;0.00;0.00;;;;;;;;;;5092845;28;20040;-86
2023/08/30 12:50:24;;;;;;;0.00;0.00;;;;;;;;;;5091776;28;20036;-85
2023/08/30 12:52:50;;;;;;;0.00;0.00;;;;;;;;;;5093210;28;20047;-85
2023/08/30 12:55:19;;;;;;;0.00;0.00;;;;;;;;;;5092429;28;20036;-87
2023/08/30 12:57:47;;;;;;;0.00;0.00;;;;;;;;;;5093067;28;20531;-88
2023/08/30 13:00:14;;;;;;;0.00;0.00;;;;;;;;;;5091698;28;20040;-86
2023/08/30 13:02:40;;;;;;;0.00;0.00;;;;;;;;;;5074936;28;20032;-87
2023/08/30 13:05:06;;;;;;;0.00;0.00;;;;;;;;;;5092659;28;20115;-90
2023/08/30 13:07:33;;;;;;;0.00;0.00;;;;;;;;;;5091916;28;20458;-86
2023/08/30 13:09:58;;;;;;;0.00;0.00;;;;;;;;;;5091898;28;20123;-87
2023/08/30 13:12:24;;;;;;;0.00;0.00;;;;;;;;;;5091948;28;20079;-86
2023/08/30 13:14:50;;;;;;;0.00;0.00;;;;;;;;;;5092649;28;20189;-86
2023/08/30 13:17:17;;;;;;;0.00;0.00;;;;;;;;;;5074765;28;20490;-87
2023/08/30 13:19:43;;;;;;;0.00;0.00;;;;;;;;;;5091366;28;20059;-86
2023/08/30 13:22:10;;;;;;;0.00;0.00;;;;;;;;;;5091432;28;20040;-86
2023/08/30 13:24:36;;;;;;;0.00;0.00;;;;;;;;;;5092720;28;20050;-87
2023/08/30 13:27:03;;;;;;;0.00;0.00;;;;;;;;;;5091981;28;20100;-87
2023/08/30 13:29:29;;;;;;;0.00;0.00;;;;;;;;;;5091103;28;20048;-86
2023/08/30 13:31:55;;;;;;;0.08;0.00;;;;;;;;;;5074813;28;20036;-87
2023/08/30 13:34:21;;;;;;;0.00;0.00;;;;;;;;;;5091810;28;20075;-87
2023/08/30 13:36:47;;;;;;;0.00;0.00;;;;;;;;;;5092971;28;20059;-86
2023/08/30 13:39:14;;;;;;;0.00;0.00;;;;;;;;;;5075387;28;20474;-87
2023/08/30 13:41:40;;;;;;;0.00;0.00;;;;;;;;;;5094974;28;20048;-87
2023/08/30 13:44:06;;;;;;;0.00;0.00;;;;;;;;;;5094935;28;20097;-87
2023/08/30 13:46:32;;;;;;;0.00;0.00;;;;;;;;;;5096331;28;20044;-87
2023/08/30 13:48:59;;;;;;;0.00;0.00;;;;;;;;;;5094553;28;20036;-86
2023/08/30 13:51:26;;;;;;;0.00;0.00;;;;;;;;;;5096049;28;20062;-87
2023/08/30 13:53:53;;;;;;;0.00;0.00;;;;;;;;;;5095972;28;20055;-86
2023/08/30 13:56:19;;;;;;;0.00;0.00;;;;;;;;;;5094632;28;20539;-86
2023/08/30 13:58:46;;;;;;;0.00;0.00;;;;;;;;;;5094716;28;20121;-86
2023/08/30 14:01:12;;;;;;;0.00;0.00;;;;;;;;;;5077600;28;20479;-86
2023/08/30 14:03:38;;;;;;;0.00;0.00;;;;;;;;;;5094704;28;20054;-87
2023/08/30 14:06:04;;;;;;;0.00;0.00;;;;;;;;;;5094340;28;20089;-86
2023/08/30 14:08:31;;;;;;;0.00;0.00;;;;;;;;;;5077210;28;20049;-86
2023/08/30 14:10:57;;;;;;;0.00;0.00;;;;;;;;;;5094649;28;20546;-87
2023/08/30 14:13:23;;;;;;;0.20;0.00;;;;;;;;;;5094214;28;20043;-87
2023/08/30 14:15:49;;;;;;;0.00;0.00;;;;;;;;;;5077367;28;20395;-87
2023/08/30 14:18:16;;;;;;;0.00;0.00;;;;;;;;;;5077408;28;20051;-87
2023/08/30 14:20:43;;;;;;;0.00;0.00;;;;;;;;;;5094474;28;20121;-86
2023/08/30 14:23:10;;;;;;;0.00;0.00;;;;;;;;;;5077314;28;20571;-84
2023/08/30 14:25:36;;;;;;;0.00;0.00;;;;;;;;;;5094582;28;20075;-84
2023/08/30 14:28:03;;;;;;;0.00;0.00;;;;;;;;;;5094174;28;20040;-83
2023/08/30 14:30:29;;;;;;;0.00;0.00;;;;;;;;;;5094082;28;20395;-83
2023/08/30 14:32:55;;;;;;;0.00;0.00;;;;;;;;;;5093836;28;20044;-83
2023/08/30 14:35:23;;;;;;;0.00;0.00;;;;;;;;;;5093731;28;20439;-84
2023/08/30 14:37:49;;;;;;;0.00;0.00;;;;;;;;;;5093860;28;20044;-86
2023/08/30 14:40:16;;;;;;;0.00;0.00;;;;;;;;;;5093501;28;20043;-86